GLO1040 SBSP-SBRJ
Flight info
| Callsign | GLO1040 |
|---|---|
| Flight time | N/A |
| Altitude | 25000 |
| Route | NIBRU UZ171 KEVUN |
| Aircraft | B738/M-SDE2E3FGHIRWXY/LB1 |
Departure
| Time | 2026-05-04 16:38 |
|---|---|
| Airport | Congonhas–Deputado Freitas Nobre Airport (SBSP) |
Arrival
| Time | N/A |
|---|---|
| Airport | Santos Dumont Airport (SBRJ) |
| Time | Latitude | Longitude | Altitude | Speed | Heading |
|---|---|---|---|---|---|
| 2026-05-04 16:25 | -23.62572 | -46.65918 | 2621 ft | 0 kts | 237° |
| 2026-05-04 16:32 | -23.62563 | -46.65882 | 2621 ft | 2 kts | 294° |
| 2026-05-04 16:33 | -23.62577 | -46.65865 | 2621 ft | 0 kts | 333° |
| 2026-05-04 16:34 | -23.62577 | -46.65866 | 2621 ft | 0 kts | 333° |
| 2026-05-04 16:35 | -23.62281 | -46.66019 | 2621 ft | 18 kts | 329° |
| 2026-05-04 16:35 | -23.62071 | -46.66147 | 2621 ft | 0 kts | 348° |
| 2026-05-04 16:36 | -23.62070 | -46.66147 | 2621 ft | 0 kts | 351° |
| 2026-05-04 16:36 | -23.62048 | -46.66083 | 2621 ft | 9 kts | 126° |
| 2026-05-04 16:37 | -23.62682 | -46.65639 | 2625 ft | 128 kts | 148° |
| 2026-05-04 16:38 | -23.67320 | -46.60003 | 5139 ft | 258 kts | 113° |
| 2026-05-04 16:39 | -23.69793 | -46.54362 | 7383 ft | 288 kts | 115° |
| 2026-05-04 16:39 | -23.71560 | -46.50389 | 9064 ft | 296 kts | 110° |
| 2026-05-04 16:40 | -23.71682 | -46.45956 | 10736 ft | 298 kts | 78° |
| 2026-05-04 16:40 | -23.70985 | -46.41387 | 12154 ft | 310 kts | 79° |
| 2026-05-04 16:41 | -23.70304 | -46.36685 | 13638 ft | 317 kts | 79° |
| 2026-05-04 16:41 | -23.69262 | -46.29390 | 15776 ft | 329 kts | 78° |
| 2026-05-04 16:42 | -23.68181 | -46.21840 | 17704 ft | 341 kts | 78° |
| 2026-05-04 16:43 | -23.67435 | -46.16639 | 18958 ft | 348 kts | 78° |
| 2026-05-04 16:43 | -23.66674 | -46.11342 | 20159 ft | 356 kts | 78° |
| 2026-05-04 16:43 | -23.66287 | -46.08647 | 20736 ft | 359 kts | 78° |
| 2026-05-04 16:44 | -23.64703 | -45.97628 | 22858 ft | 373 kts | 78° |
| 2026-05-04 16:45 | -23.63886 | -45.91966 | 23865 ft | 380 kts | 78° |
| 2026-05-04 16:46 | -23.62629 | -45.83286 | 25145 ft | 389 kts | 78° |
| 2026-05-04 16:46 | -23.61761 | -45.77330 | 25213 ft | 406 kts | 78° |
| 2026-05-04 16:47 | -23.60852 | -45.71103 | 25208 ft | 422 kts | 78° |
| 2026-05-04 16:47 | -23.59920 | -45.64719 | 25207 ft | 424 kts | 78° |
| 2026-05-04 16:48 | -23.58523 | -45.55171 | 25209 ft | 423 kts | 78° |
| 2026-05-04 16:48 | -23.58055 | -45.51992 | 25208 ft | 423 kts | 78° |
| 2026-05-04 16:49 | -23.57091 | -45.45641 | 25208 ft | 422 kts | 76° |
| 2026-05-04 16:49 | -23.55780 | -45.39404 | 25209 ft | 421 kts | 74° |
| 2026-05-04 16:50 | -23.54428 | -45.33154 | 25208 ft | 422 kts | 73° |
| 2026-05-04 16:50 | -23.53090 | -45.26906 | 25209 ft | 421 kts | 73° |
| 2026-05-04 16:51 | -23.51752 | -45.20649 | 25209 ft | 422 kts | 73° |
| 2026-05-04 16:51 | -23.51086 | -45.17529 | 25209 ft | 422 kts | 73° |
| 2026-05-04 16:51 | -23.49750 | -45.11276 | 25209 ft | 422 kts | 73° |
| 2026-05-04 16:52 | -23.48409 | -45.05034 | 25210 ft | 423 kts | 74° |
| 2026-05-04 16:52 | -23.47739 | -45.01916 | 25209 ft | 423 kts | 74° |
| 2026-05-04 16:53 | -23.46387 | -44.95624 | 25209 ft | 423 kts | 75° |
| 2026-05-04 16:53 | -23.44323 | -44.86280 | 25077 ft | 417 kts | 75° |
| 2026-05-04 16:54 | -23.43650 | -44.83247 | 24566 ft | 414 kts | 75° |
| 2026-05-04 16:55 | -23.40981 | -44.71249 | 22561 ft | 400 kts | 75° |
| 2026-05-04 16:55 | -23.39678 | -44.65414 | 21579 ft | 393 kts | 75° |
| 2026-05-04 16:56 | -23.38392 | -44.59665 | 20598 ft | 387 kts | 75° |
| 2026-05-04 16:56 | -23.36501 | -44.51227 | 19150 ft | 377 kts | 75° |
| 2026-05-04 16:57 | -23.35878 | -44.48456 | 18667 ft | 375 kts | 75° |
| 2026-05-04 16:57 | -23.34552 | -44.43008 | 17714 ft | 368 kts | 70° |
| 2026-05-04 16:58 | -23.31538 | -44.35441 | 16320 ft | 358 kts | 64° |
| 2026-05-04 16:58 | -23.30497 | -44.32989 | 15862 ft | 355 kts | 64° |
| 2026-05-04 16:59 | -23.28437 | -44.28170 | 14967 ft | 348 kts | 64° |
| 2026-05-04 17:00 | -23.24408 | -44.18802 | 13194 ft | 337 kts | 64° |
| 2026-05-04 17:00 | -23.21466 | -44.11979 | 11900 ft | 328 kts | 64° |
| 2026-05-04 17:01 | -23.19536 | -44.07527 | 11165 ft | 319 kts | 63° |
| 2026-05-04 17:01 | -23.18882 | -44.06092 | 11156 ft | 315 kts | 63° |
| 2026-05-04 17:02 | -23.15748 | -43.99294 | 11153 ft | 321 kts | 63° |
| 2026-05-04 17:02 | -23.13853 | -43.94881 | 10754 ft | 322 kts | 64° |
| 2026-05-04 17:03 | -23.12922 | -43.92690 | 10501 ft | 318 kts | 64° |
| 2026-05-04 17:03 | -23.11996 | -43.90518 | 10251 ft | 316 kts | 64° |
| 2026-05-04 17:03 | -23.10173 | -43.86252 | 9732 ft | 299 kts | 64° |
| 2026-05-04 17:04 | -23.08498 | -43.82338 | 9234 ft | 279 kts | 64° |
| 2026-05-04 17:04 | -23.06857 | -43.78514 | 8758 ft | 282 kts | 64° |
| 2026-05-04 17:05 | -23.05219 | -43.74695 | 8248 ft | 275 kts | 64° |
| 2026-05-04 17:05 | -23.03619 | -43.70971 | 8165 ft | 276 kts | 64° |
| 2026-05-04 17:06 | -23.01985 | -43.67209 | 7840 ft | 274 kts | 63° |
| 2026-05-04 17:06 | -23.01169 | -43.65344 | 7508 ft | 273 kts | 63° |
| 2026-05-04 17:07 | -22.99552 | -43.61654 | 6994 ft | 265 kts | 63° |
| 2026-05-04 17:07 | -22.99023 | -43.60450 | 7005 ft | 265 kts | 63° |
| 2026-05-04 17:07 | -22.97945 | -43.58001 | 6996 ft | 270 kts | 63° |
| 2026-05-04 17:07 | -22.97147 | -43.56186 | 6916 ft | 261 kts | 63° |
| 2026-05-04 17:08 | -22.96360 | -43.54396 | 6643 ft | 267 kts | 63° |
| 2026-05-04 17:08 | -22.94769 | -43.50777 | 6019 ft | 264 kts | 64° |
| 2026-05-04 17:08 | -22.94042 | -43.49069 | 5752 ft | 263 kts | 64° |
| 2026-05-04 17:09 | -22.93020 | -43.46649 | 5355 ft | 260 kts | 64° |
| 2026-05-04 17:09 | -22.92523 | -43.45472 | 5172 ft | 254 kts | 64° |
| 2026-05-04 17:09 | -22.91866 | -43.43918 | 4953 ft | 242 kts | 64° |